createdAt,value
2022-08-26T00:00:51.458Z,3.65
2022-08-26T00:03:20.640Z,3.65
2022-08-26T00:05:51.327Z,3.65
2022-08-26T00:08:21.720Z,3.78
2022-08-26T00:10:50.250Z,3.95
2022-08-26T00:13:19.614Z,6.65
2022-08-26T00:15:48.485Z,7.15
2022-08-26T00:18:22.265Z,4.70
2022-08-26T00:20:52.101Z,5.05
2022-08-26T00:23:24.234Z,5.57
2022-08-26T00:26:03.062Z,6.70
2022-08-26T00:28:31.542Z,4.85
2022-08-26T00:30:59.875Z,3.90
2022-08-26T00:33:28.426Z,5.07
2022-08-26T00:35:56.967Z,3.97
2022-08-26T00:38:25.488Z,4.00
2022-08-26T00:40:58.217Z,3.50
2022-08-26T00:43:30.385Z,4.22
2022-08-26T00:46:25.616Z,2.97
2022-08-26T00:49:16.153Z,5.28
2022-08-26T00:51:55.722Z,3.90
2022-08-26T00:54:27.538Z,3.47
2022-08-26T00:57:08.708Z,4.10
2022-08-26T00:59:57.020Z,4.90
2022-08-26T01:02:25.980Z,3.70
2022-08-26T01:05:01.685Z,3.33
2022-08-26T01:07:34.757Z,3.40
2022-08-26T01:10:11.761Z,3.63
2022-08-26T01:12:46.682Z,4.22
2022-08-26T01:15:27.944Z,3.15
2022-08-26T01:18:05.458Z,5.25
2022-08-26T01:21:02.396Z,3.35
2022-08-26T01:23:38.216Z,3.83
2022-08-26T01:26:19.568Z,3.70
2022-08-26T01:28:51.973Z,3.70
2022-08-26T01:31:25.670Z,5.10
2022-08-26T01:34:29.716Z,3.40
2022-08-26T01:37:13.773Z,3.20
2022-08-26T01:39:48.406Z,3.70
2022-08-26T01:42:18.971Z,3.55
2022-08-26T01:45:03.679Z,3.47
2022-08-26T01:47:35.609Z,4.18
2022-08-26T01:50:15.818Z,3.53
2022-08-26T01:53:08.881Z,3.78
2022-08-26T01:55:44.697Z,4.10
2022-08-26T01:58:21.348Z,3.70
2022-08-26T02:00:51.394Z,3.72
2022-08-26T02:03:22.550Z,3.47
2022-08-26T02:06:09.395Z,3.78
2022-08-26T02:08:44.757Z,3.50
2022-08-26T02:11:14.144Z,3.58
2022-08-26T02:13:59.663Z,3.38
2022-08-26T02:16:33.761Z,4.53
2022-08-26T02:19:08.401Z,3.70
2022-08-26T02:21:51.922Z,5.30
2022-08-26T02:24:29.118Z,5.50
2022-08-26T02:26:58.681Z,3.40
2022-08-26T02:29:41.310Z,3.30
2022-08-26T02:32:10.655Z,5.40
2022-08-26T02:34:40.606Z,3.03
2022-08-26T02:37:11.637Z,3.80
2022-08-26T02:39:42.516Z,3.42
2022-08-26T02:42:11.249Z,4.80
2022-08-26T02:44:40.937Z,5.85
2022-08-26T02:47:09.454Z,3.53
2022-08-26T02:49:40.861Z,4.97
2022-08-26T02:52:13.668Z,3.60
2022-08-26T02:54:42.188Z,4.03
2022-08-26T02:57:14.428Z,3.92
2022-08-26T02:59:42.674Z,3.50
2022-08-26T03:02:11.611Z,3.72
2022-08-26T03:04:41.346Z,5.78
2022-08-26T03:07:26.708Z,4.05
2022-08-26T03:09:56.937Z,3.60
2022-08-26T03:12:25.733Z,5.43
2022-08-26T03:14:54.056Z,4.18
2022-08-26T03:17:24.540Z,3.70
2022-08-26T03:19:57.342Z,3.92
2022-08-26T03:22:27.102Z,3.78
2022-08-26T03:24:56.788Z,4.95
2022-08-26T03:27:26.062Z,3.83
2022-08-26T03:30:13.733Z,5.00
2022-08-26T03:32:42.998Z,3.90
2022-08-26T03:35:12.988Z,4.68
2022-08-26T03:37:42.328Z,3.78
2022-08-26T03:40:12.628Z,3.50
2022-08-26T03:42:41.891Z,4.13
2022-08-26T03:45:15.889Z,3.97
2022-08-26T03:47:45.220Z,5.72
2022-08-26T03:50:22.593Z,4.32
2022-08-26T03:52:54.659Z,4.13
2022-08-26T03:55:32.209Z,4.38
2022-08-26T03:58:02.143Z,4.07
2022-08-26T04:00:31.827Z,4.07
2022-08-26T04:03:02.739Z,5.00
2022-08-26T04:05:32.109Z,4.20
2022-08-26T04:08:00.608Z,3.95
2022-08-26T04:10:29.625Z,4.28
2022-08-26T04:13:00.611Z,4.13
2022-08-26T04:15:29.773Z,4.00
2022-08-26T04:17:58.856Z,4.30
2022-08-26T04:20:28.205Z,3.92
2022-08-26T04:22:56.535Z,3.95
2022-08-26T04:25:25.995Z,4.00
2022-08-26T04:27:54.942Z,3.80
2022-08-26T04:30:22.738Z,4.07
2022-08-26T04:32:51.742Z,4.22
2022-08-26T04:35:25.701Z,5.43
2022-08-26T04:37:54.394Z,4.60
2022-08-26T04:40:23.493Z,4.05
2022-08-26T04:42:51.779Z,4.40
2022-08-26T04:45:22.786Z,4.57
2022-08-26T04:47:56.553Z,4.40
2022-08-26T04:50:26.568Z,4.20
2022-08-26T04:52:55.620Z,4.07
2022-08-26T04:55:37.253Z,4.10
2022-08-26T04:58:10.907Z,5.20
2022-08-26T05:00:39.828Z,4.30
2022-08-26T05:03:09.584Z,4.30
2022-08-26T05:05:43.365Z,4.68
2022-08-26T05:08:15.186Z,4.65
2022-08-26T05:10:50.601Z,7.18
2022-08-26T05:13:22.225Z,5.15
2022-08-26T05:15:51.910Z,4.13
2022-08-26T05:18:24.028Z,4.70
2022-08-26T05:20:54.876Z,4.70
2022-08-26T05:23:24.728Z,4.53
2022-08-26T05:25:59.342Z,5.55
2022-08-26T05:28:30.163Z,4.22
2022-08-26T05:30:58.588Z,4.25
2022-08-26T05:33:27.383Z,3.90
2022-08-26T05:35:56.659Z,4.40
2022-08-26T05:38:25.012Z,4.50
2022-08-26T05:41:00.863Z,4.20
2022-08-26T05:43:29.063Z,5.50
2022-08-26T05:46:07.076Z,5.50
2022-08-26T05:48:35.645Z,4.10
2022-08-26T05:51:10.249Z,10.13
2022-08-26T05:53:40.691Z,6.43
2022-08-26T05:56:16.157Z,6.07
2022-08-26T05:58:46.237Z,5.03
2022-08-26T06:01:21.462Z,4.72
2022-08-26T06:03:56.378Z,5.35
2022-08-26T06:06:37.364Z,6.03
2022-08-26T06:09:10.940Z,4.43
2022-08-26T06:11:40.037Z,7.85
2022-08-26T06:14:09.154Z,5.43
2022-08-26T06:16:41.304Z,4.68
2022-08-26T06:19:11.790Z,4.25
2022-08-26T06:21:42.802Z,4.50
2022-08-26T06:24:58.025Z,7.28
2022-08-26T06:27:47.111Z,3.90
2022-08-26T06:30:16.114Z,3.97
2022-08-26T06:32:46.150Z,4.20
2022-08-26T06:35:15.887Z,6.50
2022-08-26T06:37:44.838Z,3.90
2022-08-26T06:40:13.001Z,5.00
2022-08-26T06:42:41.104Z,4.57
2022-08-26T06:45:10.843Z,7.80
2022-08-26T06:47:39.868Z,4.50
2022-08-26T06:50:08.474Z,4.35
2022-08-26T06:52:37.054Z,4.13
2022-08-26T06:55:06.653Z,4.03
2022-08-26T06:57:37.719Z,3.92
2022-08-26T07:00:11.918Z,5.22
2022-08-26T07:02:40.998Z,4.15
2022-08-26T07:05:16.423Z,4.97
2022-08-26T07:07:44.359Z,4.38
2022-08-26T07:10:13.555Z,4.30
2022-08-26T07:12:43.313Z,4.60
2022-08-26T07:15:16.468Z,4.32
2022-08-26T07:17:44.877Z,4.07
2022-08-26T07:20:14.299Z,4.20
2022-08-26T07:22:44.986Z,5.22
2022-08-26T07:25:13.542Z,5.00
2022-08-26T07:27:42.005Z,4.82
2022-08-26T07:30:11.541Z,6.05
2022-08-26T07:32:43.509Z,4.18
2022-08-26T07:35:12.095Z,4.20
2022-08-26T07:37:41.385Z,4.00
2022-08-26T07:40:10.204Z,4.10
2022-08-26T07:42:40.930Z,4.20
2022-08-26T07:45:09.164Z,4.30
2022-08-26T07:47:41.141Z,6.05
2022-08-26T07:50:09.733Z,5.25
2022-08-26T07:52:38.325Z,4.70
2022-08-26T07:55:11.081Z,6.85
2022-08-26T07:57:40.359Z,4.90
2022-08-26T08:00:17.299Z,3.80
2022-08-26T08:02:46.133Z,4.07
2022-08-26T08:05:22.045Z,4.05
2022-08-26T08:08:19.684Z,3.83
2022-08-26T08:10:45.082Z,3.63
2022-08-26T08:13:17.354Z,5.75
2022-08-26T08:15:48.172Z,4.38
2022-08-26T08:18:20.491Z,3.75
2022-08-26T08:20:59.063Z,4.27
2022-08-26T08:23:33.835Z,3.83
2022-08-26T08:26:10.316Z,4.78
2022-08-26T08:28:40.141Z,5.45
2022-08-26T08:31:10.016Z,4.00
2022-08-26T08:33:39.717Z,4.35
2022-08-26T08:36:09.278Z,3.60
2022-08-26T08:38:40.536Z,3.80
2022-08-26T08:41:57.774Z,3.65
2022-08-26T08:47:01.811Z,4.60
2022-08-26T08:49:32.382Z,8.20
2022-08-26T08:52:13.446Z,4.20
2022-08-26T08:54:41.571Z,4.70
2022-08-26T08:57:26.978Z,4.00
2022-08-26T09:00:13.716Z,6.72
2022-08-26T09:03:09.574Z,7.18
2022-08-26T09:05:46.697Z,4.90
2022-08-26T09:08:23.226Z,8.63
2022-08-26T09:11:00.719Z,5.25
2022-08-26T09:13:31.912Z,4.63
2022-08-26T09:16:19.155Z,6.30
2022-08-26T09:19:14.474Z,4.47
2022-08-26T09:21:42.529Z,4.40
2022-08-26T09:24:11.350Z,4.28
2022-08-26T09:26:45.407Z,6.68
2022-08-26T09:29:25.846Z,9.75
2022-08-26T09:32:24.282Z,6.65
2022-08-26T09:35:04.477Z,6.30
2022-08-26T09:40:29.520Z,4.70
2022-08-26T09:43:22.651Z,4.38
2022-08-26T09:45:59.184Z,4.53
2022-08-26T09:48:40.638Z,4.55
2022-08-26T09:51:23.993Z,4.88
2022-08-26T09:54:03.936Z,5.07
2022-08-26T09:56:39.783Z,4.60
2022-08-26T09:59:11.979Z,9.70
2022-08-26T10:01:45.090Z,5.05
2022-08-26T10:04:26.720Z,15.30
2022-08-26T10:07:01.393Z,13.43
2022-08-26T10:09:43.475Z,9.75
2022-08-26T10:12:18.912Z,6.72
2022-08-26T10:14:54.989Z,5.22
2022-08-26T10:18:25.091Z,5.13
2022-08-26T10:21:07.255Z,4.95
2022-08-26T10:23:45.076Z,5.03
2022-08-26T10:26:26.723Z,4.70
2022-08-26T10:29:22.986Z,7.25
2022-08-26T10:32:03.647Z,6.78
2022-08-26T10:34:35.033Z,5.25
2022-08-26T10:37:18.249Z,5.35
2022-08-26T10:40:00.972Z,12.85
2022-08-26T10:42:37.754Z,11.20
2022-08-26T10:45:19.808Z,6.15
2022-08-26T10:47:58.693Z,5.75
2022-08-26T10:50:37.478Z,6.78
2022-08-26T10:53:32.525Z,5.40
2022-08-26T10:56:29.719Z,5.15
2022-08-26T10:59:04.959Z,4.80
2022-08-26T11:02:29.772Z,9.13
2022-08-26T11:05:06.044Z,5.85
2022-08-26T11:07:36.752Z,5.95
2022-08-26T11:10:42.605Z,6.35
2022-08-26T11:13:12.288Z,4.90
2022-08-26T11:15:40.058Z,8.75
2022-08-26T11:18:12.155Z,4.35
2022-08-26T11:20:48.730Z,4.82
2022-08-26T11:23:22.865Z,5.25
2022-08-26T11:26:10.165Z,6.38
2022-08-26T11:28:50.361Z,4.07
2022-08-26T11:31:25.579Z,4.75
2022-08-26T11:33:59.876Z,4.90
2022-08-26T11:36:35.302Z,3.78
2022-08-26T11:39:36.883Z,4.15
2022-08-26T11:42:28.784Z,4.18
2022-08-26T11:44:58.891Z,3.85
2022-08-26T11:47:32.459Z,3.63
2022-08-26T11:50:25.043Z,6.95
2022-08-26T11:53:06.171Z,3.22
2022-08-26T11:55:41.899Z,5.28
2022-08-26T11:58:13.519Z,5.25
2022-08-26T12:00:45.688Z,4.13
2022-08-26T12:03:25.169Z,3.70
2022-08-26T12:05:54.247Z,2.83
2022-08-26T12:08:28.618Z,3.40
2022-08-26T12:11:09.881Z,3.13
2022-08-26T12:13:39.240Z,3.38
2022-08-26T12:16:07.869Z,3.00
2022-08-26T12:18:38.950Z,2.95
2022-08-26T12:21:20.357Z,4.10
2022-08-26T12:24:04.931Z,3.10
2022-08-26T12:26:37.567Z,4.40
2022-08-26T12:29:32.071Z,3.95
2022-08-26T12:32:18.044Z,3.53
2022-08-26T12:34:49.071Z,3.50
2022-08-26T12:37:19.115Z,5.05
2022-08-26T12:39:49.414Z,3.25
2022-08-26T12:42:21.962Z,3.47
2022-08-26T12:45:04.562Z,3.17
2022-08-26T12:47:42.196Z,3.30
2022-08-26T12:50:31.232Z,3.70
2022-08-26T12:52:59.654Z,4.05
2022-08-26T12:55:53.402Z,3.92
2022-08-26T12:58:38.771Z,3.53
2022-08-26T13:01:07.218Z,3.75
2022-08-26T13:03:38.761Z,3.20
2022-08-26T13:06:15.441Z,3.10
2022-08-26T13:09:10.032Z,3.25
2022-08-26T13:11:41.525Z,2.72
2022-08-26T13:14:21.100Z,3.25
2022-08-26T13:16:53.267Z,6.85
2022-08-26T13:19:25.775Z,6.00
2022-08-26T13:22:00.279Z,2.90
2022-08-26T13:24:36.159Z,2.67
2022-08-26T13:27:07.547Z,6.40
2022-08-26T13:29:37.244Z,2.70
2022-08-26T13:32:07.949Z,2.70
2022-08-26T13:34:38.189Z,3.42
2022-08-26T13:37:07.387Z,3.25
2022-08-26T13:39:35.359Z,3.35
2022-08-26T13:42:03.740Z,3.28
2022-08-26T13:44:31.480Z,2.88
2022-08-26T13:47:00.317Z,3.25
2022-08-26T13:49:28.456Z,2.83
2022-08-26T13:51:56.923Z,2.70
2022-08-26T13:54:24.744Z,2.63
2022-08-26T13:56:53.690Z,2.97
2022-08-26T13:59:21.812Z,2.67
2022-08-26T14:01:50.750Z,2.80
2022-08-26T14:04:26.932Z,2.88
2022-08-26T14:06:55.968Z,3.30
2022-08-26T14:09:24.544Z,2.75
2022-08-26T14:11:54.296Z,3.10
2022-08-26T14:14:23.630Z,2.70
2022-08-26T14:17:00.119Z,3.08
2022-08-26T14:19:30.778Z,3.15
2022-08-26T14:22:01.360Z,3.17
2022-08-26T14:24:30.281Z,3.55
2022-08-26T14:27:00.179Z,3.45
2022-08-26T14:29:28.308Z,3.35
2022-08-26T14:32:03.507Z,4.45
2022-08-26T14:34:31.823Z,3.50
2022-08-26T14:36:59.864Z,5.65
2022-08-26T14:39:37.818Z,5.70
2022-08-26T14:42:07.579Z,4.95
2022-08-26T14:44:37.515Z,5.70
2022-08-26T14:47:07.458Z,6.22
2022-08-26T14:49:36.699Z,3.97
2022-08-26T14:52:05.866Z,3.58
2022-08-26T14:54:34.057Z,3.55
2022-08-26T14:57:08.138Z,3.58
2022-08-26T14:59:40.990Z,3.53
2022-08-26T15:02:13.661Z,3.70
2022-08-26T15:04:51.442Z,5.82
2022-08-26T15:07:19.740Z,4.57
2022-08-26T15:09:50.195Z,3.67
2022-08-26T15:12:18.456Z,4.70
2022-08-26T15:14:48.572Z,6.43
2022-08-26T15:17:17.895Z,3.35
2022-08-26T15:19:47.621Z,3.20
2022-08-26T15:22:15.871Z,3.50
2022-08-26T15:24:44.012Z,6.53
2022-08-26T15:27:12.408Z,3.80
2022-08-26T15:29:41.553Z,3.33
2022-08-26T15:32:10.096Z,3.08
2022-08-26T15:34:38.964Z,3.42
2022-08-26T15:37:07.073Z,2.97
2022-08-26T15:39:35.525Z,3.08
2022-08-26T15:42:04.317Z,3.13
2022-08-26T15:44:34.370Z,3.40
2022-08-26T15:47:02.862Z,2.90
2022-08-26T15:49:31.125Z,3.03
2022-08-26T15:51:59.064Z,3.15
2022-08-26T15:54:27.262Z,3.13
2022-08-26T15:56:56.374Z,3.00
2022-08-26T15:59:25.287Z,3.20
2022-08-26T16:01:53.618Z,3.63
2022-08-26T16:04:22.904Z,3.00
2022-08-26T16:06:53.305Z,3.10
2022-08-26T16:09:26.947Z,4.70
2022-08-26T16:11:56.285Z,4.38
2022-08-26T16:14:24.512Z,3.90
2022-08-26T16:16:54.226Z,4.68
2022-08-26T16:19:22.290Z,5.40
2022-08-26T16:21:52.109Z,6.97
2022-08-26T16:24:28.370Z,4.55
2022-08-26T16:26:59.289Z,3.10
2022-08-26T16:29:27.916Z,3.20
2022-08-26T16:31:56.837Z,3.88
2022-08-26T16:34:25.181Z,3.33
2022-08-26T16:36:53.534Z,3.75
2022-08-26T16:39:21.912Z,3.00
2022-08-26T16:41:51.481Z,3.33
2022-08-26T16:44:19.698Z,3.70
2022-08-26T16:46:48.328Z,3.47
2022-08-26T16:49:17.478Z,3.30
2022-08-26T16:51:46.837Z,3.78
2022-08-26T16:54:15.118Z,3.08
2022-08-26T16:56:43.979Z,3.10
2022-08-26T16:59:12.064Z,5.70
2022-08-26T17:01:40.390Z,3.47
2022-08-26T17:04:08.927Z,2.40
2022-08-26T17:06:38.264Z,3.20
2022-08-26T17:09:08.751Z,2.27
2022-08-26T17:11:36.866Z,2.50
2022-08-26T17:14:06.531Z,2.55
2022-08-26T17:16:36.485Z,4.35
2022-08-26T17:19:06.286Z,2.50
2022-08-26T17:21:36.546Z,2.75
2022-08-26T17:26:37.270Z,3.10
2022-08-26T17:29:07.663Z,4.53
2022-08-26T17:31:35.809Z,4.57
2022-08-26T17:34:04.381Z,3.30
2022-08-26T17:36:33.653Z,4.63
2022-08-26T17:39:02.750Z,3.70
2022-08-26T17:41:31.048Z,3.80
2022-08-26T17:43:59.546Z,4.00
2022-08-26T17:46:28.231Z,4.63
2022-08-26T17:48:56.696Z,3.65
2022-08-26T17:51:26.145Z,3.65
2022-08-26T17:53:54.561Z,4.35
2022-08-26T17:56:28.163Z,3.88
2022-08-26T17:59:03.525Z,3.92
2022-08-26T18:01:33.152Z,3.80
2022-08-26T18:04:01.941Z,3.83
2022-08-26T18:06:31.306Z,4.32
2022-08-26T18:09:01.075Z,4.63
2022-08-26T18:11:29.882Z,5.25
2022-08-26T18:13:59.584Z,5.20
2022-08-26T18:16:31.677Z,5.47
2022-08-26T18:19:00.491Z,5.55
2022-08-26T18:21:28.873Z,5.28
2022-08-26T18:23:58.639Z,5.38
2022-08-26T18:26:49.529Z,7.47
2022-08-26T18:29:19.689Z,5.50
2022-08-26T18:31:49.640Z,5.72
2022-08-26T18:34:19.546Z,6.93
2022-08-26T18:36:48.523Z,7.70
2022-08-26T18:39:19.547Z,6.18
2022-08-26T18:41:53.658Z,8.68
2022-08-26T18:44:23.414Z,6.60
2022-08-26T18:46:53.227Z,7.43
2022-08-26T18:49:23.173Z,6.45
2022-08-26T18:51:52.650Z,7.22
2022-08-26T18:54:22.009Z,8.43
2022-08-26T18:56:52.118Z,7.93
2022-08-26T18:59:29.558Z,8.13
2022-08-26T19:02:00.517Z,8.25
2022-08-26T19:04:28.765Z,8.60
2022-08-26T19:06:58.091Z,8.88
2022-08-26T19:09:26.630Z,11.50
2022-08-26T19:14:30.531Z,8.50
2022-08-26T19:16:59.208Z,7.75
2022-08-26T19:19:27.865Z,8.63
2022-08-26T19:21:56.362Z,8.35
2022-08-26T19:24:28.153Z,8.25
2022-08-26T19:27:00.323Z,10.73
2022-08-26T19:29:35.379Z,8.60
2022-08-26T19:32:04.741Z,8.38
2022-08-26T19:34:32.876Z,9.30
2022-08-26T19:37:01.074Z,8.90
2022-08-26T19:39:29.551Z,7.72
2022-08-26T19:41:57.594Z,8.15
2022-08-26T19:44:45.624Z,8.38
2022-08-26T19:47:14.857Z,8.70
2022-08-26T19:49:44.189Z,8.07
2022-08-26T19:52:12.919Z,8.88
2022-08-26T19:54:41.436Z,8.25
2022-08-26T19:57:11.226Z,8.13
2022-08-26T19:59:40.404Z,8.23
2022-08-26T20:02:11.103Z,8.43
2022-08-26T20:04:41.863Z,7.65
2022-08-26T20:07:18.511Z,8.00
2022-08-26T20:09:48.717Z,8.35
2022-08-26T20:12:18.852Z,9.02
2022-08-26T20:14:47.670Z,8.13
2022-08-26T20:17:17.361Z,8.45
2022-08-26T20:20:04.733Z,10.77
2022-08-26T20:22:33.730Z,8.07
2022-08-26T20:25:02.362Z,8.02
2022-08-26T20:27:37.912Z,8.93
2022-08-26T20:30:09.087Z,8.65
2022-08-26T20:32:38.488Z,8.35
2022-08-26T20:35:11.527Z,11.40
2022-08-26T20:37:41.271Z,7.85
2022-08-26T20:40:12.537Z,7.72
2022-08-26T20:42:40.986Z,8.07
2022-08-26T20:45:09.843Z,6.78
2022-08-26T20:47:38.047Z,7.07
2022-08-26T20:50:08.081Z,7.93
2022-08-26T20:52:36.738Z,7.00
2022-08-26T20:55:06.865Z,9.63
2022-08-26T20:57:34.810Z,6.47
2022-08-26T21:00:04.649Z,6.75
2022-08-26T21:02:32.531Z,6.35
2022-08-26T21:05:01.706Z,6.40
2022-08-26T21:07:30.295Z,5.97
2022-08-26T21:09:58.685Z,9.20
2022-08-26T21:12:28.586Z,6.88
2022-08-26T21:14:59.156Z,6.40
2022-08-26T21:17:27.310Z,7.43
2022-08-26T21:19:55.532Z,8.07
2022-08-26T21:22:24.065Z,8.93
2022-08-26T21:24:52.241Z,7.28
2022-08-26T21:27:26.201Z,7.93
2022-08-26T21:29:54.797Z,8.40
2022-08-26T21:32:24.415Z,9.63
2022-08-26T21:34:56.354Z,9.63
2022-08-26T21:37:26.103Z,10.32
2022-08-26T21:39:59.047Z,10.90
2022-08-26T21:42:28.679Z,11.95
2022-08-26T21:44:57.652Z,12.35
2022-08-26T21:47:26.216Z,12.43
2022-08-26T21:49:54.643Z,12.98
2022-08-26T21:52:22.889Z,11.82
2022-08-26T21:54:51.237Z,12.02
2022-08-26T21:57:20.641Z,12.25
2022-08-26T21:59:48.551Z,12.88
2022-08-26T22:02:16.930Z,12.75
2022-08-26T22:04:48.831Z,12.88
2022-08-26T22:07:19.712Z,10.77
2022-08-26T22:09:49.643Z,10.88
2022-08-26T22:12:18.393Z,10.75
2022-08-26T22:14:47.774Z,11.90
2022-08-26T22:17:17.332Z,10.80
2022-08-26T22:19:45.915Z,14.75
2022-08-26T22:22:14.924Z,13.70
2022-08-26T22:24:43.673Z,14.43
2022-08-26T22:27:14.016Z,16.83
2022-08-26T22:29:42.136Z,16.25
2022-08-26T22:32:11.416Z,15.80
2022-08-26T22:34:40.874Z,16.63
2022-08-26T22:37:08.713Z,17.58
2022-08-26T22:39:36.849Z,17.02
2022-08-26T22:42:06.098Z,16.13
2022-08-26T22:44:36.522Z,15.30
2022-08-26T22:47:04.498Z,15.87
2022-08-26T22:49:32.764Z,16.13
2022-08-26T22:52:00.669Z,16.60
2022-08-26T22:54:29.241Z,17.60
2022-08-26T22:56:57.482Z,23.27
2022-08-26T22:59:27.041Z,16.75
2022-08-26T23:01:55.002Z,16.08
2022-08-26T23:04:24.164Z,16.45
2022-08-26T23:06:52.110Z,16.40
2022-08-26T23:09:20.109Z,15.93
2022-08-26T23:11:49.772Z,14.80
2022-08-26T23:14:19.345Z,14.38
2022-08-26T23:16:48.468Z,14.52
2022-08-26T23:19:21.322Z,14.23
2022-08-26T23:21:50.553Z,14.73
2022-08-26T23:24:18.634Z,14.68
2022-08-26T23:26:47.090Z,13.60
2022-08-26T23:29:15.904Z,13.63
2022-08-26T23:31:44.565Z,13.85
2022-08-26T23:34:32.410Z,14.13
2022-08-26T23:37:02.667Z,15.07
2022-08-26T23:39:36.564Z,14.30
2022-08-26T23:42:06.501Z,14.48
2022-08-26T23:44:35.299Z,13.82
2022-08-26T23:47:05.221Z,13.93
2022-08-26T23:49:34.468Z,9.65
2022-08-26T23:52:22.988Z,8.82
2022-08-26T23:54:53.557Z,8.80
2022-08-26T23:57:24.053Z,9.13
2022-08-26T23:59:53.806Z,8.75
